Time;durP1;ratioP1;P1;durP2;ratioP2;P2;SDS_P1;SDS_P2;PMS_P1;PMS_P2;Temp;Humidity;BMP_temperature;BMP_pressure;BME280_temperature;BME280_humidity;BME280_pressure;Samples;Min_cycle;Max_cycle;Signal;HPM_P1;HPM_P2
2022/12/20 00:01:28;;;;;;;;;;;8.10;99.90;;;;;;5026579;28;19933;-94
2022/12/20 00:03:54;;;;;;;;;;;8.10;99.90;;;;;;5029154;28;19926;-93
2022/12/20 00:06:21;;;;;;;;;;;8.20;99.90;;;;;;5029319;28;19926;-92
2022/12/20 00:08:51;;;;;;;;;;;8.10;99.90;;;;;;5001731;28;19942;-93
2022/12/20 00:11:16;;;;;;;;;;;8.10;99.90;;;;;;5026232;28;19943;-92
2022/12/20 00:13:44;;;;;;;;;;;8.10;99.90;;;;;;5024166;28;19931;-92
2022/12/20 00:16:10;;;;;;;;;;;8.10;99.90;;;;;;4987232;28;19933;-93
2022/12/20 00:18:37;;;;;;;;;;;8.10;99.90;;;;;;5025500;28;19930;-94
2022/12/20 00:21:03;;;;;;;;;;;8.10;99.90;;;;;;5023257;28;20009;-91
2022/12/20 00:23:29;;;;;;;;;;;8.10;99.90;;;;;;5045942;28;19976;-92
2022/12/20 00:26:05;;;;;;;;;;;8.10;99.90;;;;;;5000070;28;19926;-93
2022/12/20 00:28:31;;;;;;;;;;;8.10;99.90;;;;;;5026866;28;19986;-94
2022/12/20 00:30:56;;;;;;;;;;;8.10;99.90;;;;;;5029689;28;20009;-94
2022/12/20 00:33:22;;;;;;;;;;;8.00;99.90;;;;;;5028668;28;19930;-92
2022/12/20 00:35:47;;;;;;;;;;;8.00;99.90;;;;;;4961395;28;19925;-92
2022/12/20 00:38:13;;;;;;;;;;;8.00;99.90;;;;;;4946280;28;19976;-91
2022/12/20 00:40:39;;;;;;;;;;;8.00;99.90;;;;;;5029072;28;19932;-93
2022/12/20 00:43:04;;;;;;;;;;;7.90;99.90;;;;;;4946550;28;19926;-92
2022/12/20 00:45:30;;;;;;;;;;;7.90;99.90;;;;;;5011696;28;19933;-93
2022/12/20 00:47:56;;;;;;;;;;;7.90;99.90;;;;;;4945283;28;19930;-93
2022/12/20 00:50:21;;;;;;;;;;;7.90;99.90;;;;;;5025984;28;19986;-92
2022/12/20 00:52:47;;;;;;;;;;;7.90;99.90;;;;;;5012837;28;20025;-93
2022/12/20 00:55:13;;;;;;;;;;;7.90;99.90;;;;;;5026465;28;19972;-92
2022/12/20 00:57:38;;;;;;;;;;;7.90;99.90;;;;;;4959576;28;19931;-91
2022/12/20 01:00:05;;;;;;;;;;;7.90;99.90;;;;;;5047842;28;19924;-93
2022/12/20 01:02:31;;;;;;;;;;;7.90;99.90;;;;;;5048314;28;19924;-93
2022/12/20 01:04:57;;;;;;;;;;;7.90;99.90;;;;;;5050431;28;19931;-92
2022/12/20 01:07:23;;;;;;;;;;;7.90;99.90;;;;;;5065835;28;19924;-92
2022/12/20 01:09:49;;;;;;;;;;;7.90;99.90;;;;;;5049723;28;19956;-94
2022/12/20 01:12:15;;;;;;;;;;;7.90;99.90;;;;;;5065717;28;19929;-92
2022/12/20 01:14:41;;;;;;;;;;;8.00;99.90;;;;;;5066017;28;19969;-92
2022/12/20 01:17:06;;;;;;;;;;;8.00;99.90;;;;;;5075659;28;19928;-92
2022/12/20 01:19:32;;;;;;;;;;;8.00;99.90;;;;;;5048575;28;19924;-93
2022/12/20 01:21:57;;;;;;;;;;;8.00;99.90;;;;;;5066402;28;19931;-93
2022/12/20 01:24:23;;;;;;;;;;;8.00;99.90;;;;;;5065656;28;20019;-91
2022/12/20 01:26:49;;;;;;;;;;;8.00;99.90;;;;;;5049554;28;19985;-95
2022/12/20 01:29:14;;;;;;;;;;;8.10;99.90;;;;;;5050879;28;20322;-92
2022/12/20 01:31:40;;;;;;;;;;;8.10;99.90;;;;;;5041234;28;19924;-93
2022/12/20 01:34:06;;;;;;;;;;;8.10;99.90;;;;;;5038135;28;19964;-92
2022/12/20 01:36:33;;;;;;;;;;;8.10;99.90;;;;;;5040815;28;19925;-93
2022/12/20 01:39:03;;;;;;;;;;;8.10;99.90;;;;;;5047606;28;20018;-95
2022/12/20 01:41:29;;;;;;;;;;;8.00;99.90;;;;;;5049657;28;19929;-94
2022/12/20 01:44:02;;;;;;;;;;;7.90;99.90;;;;;;5049522;28;19970;-91
2022/12/20 01:46:29;;;;;;;;;;;8.00;99.90;;;;;;5040985;28;20011;-93
2022/12/20 01:49:01;;;;;;;;;;;8.00;99.90;;;;;;5063238;28;19924;-92
2022/12/20 01:51:28;;;;;;;;;;;8.00;99.90;;;;;;5066335;28;19928;-91
2022/12/20 01:54:00;;;;;;;;;;;8.10;99.90;;;;;;5048344;28;20015;-92
2022/12/20 01:56:26;;;;;;;;;;;8.10;99.90;;;;;;5050430;28;19924;-92
2022/12/20 01:58:53;;;;;;;;;;;8.10;99.90;;;;;;5048395;28;20591;-93
2022/12/20 02:01:21;;;;;;;;;;;8.10;99.90;;;;;;5065092;28;19931;-93
2022/12/20 02:03:47;;;;;;;;;;;8.00;99.90;;;;;;5044467;28;19929;-95
2022/12/20 02:06:19;;;;;;;;;;;8.00;99.90;;;;;;5037674;28;19924;-94
2022/12/20 02:08:46;;;;;;;;;;;8.00;99.90;;;;;;5049624;28;19932;-91
2022/12/20 02:11:24;;;;;;;;;;;8.00;99.90;;;;;;5048020;28;20292;-93
2022/12/20 02:13:53;;;;;;;;;;;8.10;99.90;;;;;;5038781;28;19925;-92
2022/12/20 02:16:24;;;;;;;;;;;8.10;99.90;;;;;;5058843;28;19931;-93
2022/12/20 02:18:58;;;;;;;;;;;8.10;99.90;;;;;;5047892;28;19925;-92
2022/12/20 02:21:27;;;;;;;;;;;8.00;99.90;;;;;;5048420;28;19924;-91
2022/12/20 02:23:59;;;;;;;;;;;8.10;99.90;;;;;;5064224;28;19924;-91
2022/12/20 02:26:37;;;;;;;;;;;8.10;99.90;;;;;;5048894;28;19963;-92
2022/12/20 02:29:11;;;;;;;;;;;8.10;99.90;;;;;;5063198;28;19924;-92
2022/12/20 02:31:57;;;;;;;;;;;8.10;99.90;;;;;;5059640;28;20284;-92
2022/12/20 02:34:26;;;;;;;;;;;8.10;99.90;;;;;;5047335;28;19955;-93
2022/12/20 02:36:52;;;;;;;;;;;8.10;99.90;;;;;;5064277;28;20446;-94
2022/12/20 02:39:18;;;;;;;;;;;8.10;99.90;;;;;;5048626;28;19964;-93
2022/12/20 02:41:56;;;;;;;;;;;8.10;99.90;;;;;;5029633;28;19992;-92
2022/12/20 02:47:11;;;;;;;;;;;8.10;99.90;;;;;;5062786;28;20043;-94
2022/12/20 02:49:40;;;;;;;;;;;8.20;99.90;;;;;;5040057;28;19928;-92
2022/12/20 02:52:07;;;;;;;;;;;8.20;99.90;;;;;;5048165;28;19998;-93
2022/12/20 02:54:33;;;;;;;;;;;8.20;99.90;;;;;;5046925;28;19925;-92
2022/12/20 02:57:01;;;;;;;;;;;8.20;99.90;;;;;;5047829;28;20023;-93
2022/12/20 02:59:34;;;;;;;;;;;8.20;99.90;;;;;;5030658;28;19930;-94
2022/12/20 03:02:01;;;;;;;;;;;8.20;99.90;;;;;;5028232;28;19926;-96
2022/12/20 03:04:28;;;;;;;;;;;8.20;99.90;;;;;;5022727;28;19977;-94
2022/12/20 03:07:01;;;;;;;;;;;8.20;99.90;;;;;;5028512;28;19926;-93
2022/12/20 03:09:28;;;;;;;;;;;8.20;99.90;;;;;;5029704;28;19930;-94
2022/12/20 03:11:54;;;;;;;;;;;8.20;99.90;;;;;;5021391;28;19949;-94
2022/12/20 03:14:20;;;;;;;;;;;8.20;99.90;;;;;;5024219;28;19926;-94
2022/12/20 03:16:46;;;;;;;;;;;8.20;99.90;;;;;;5030370;28;19933;-94
2022/12/20 03:19:11;;;;;;;;;;;8.20;99.90;;;;;;4965788;28;19925;-92
2022/12/20 03:21:37;;;;;;;;;;;8.20;99.90;;;;;;5030869;28;19926;-94
2022/12/20 03:24:03;;;;;;;;;;;8.20;99.90;;;;;;4947093;28;19926;-93
2022/12/20 03:26:28;;;;;;;;;;;8.20;99.90;;;;;;4953568;28;19933;-92
2022/12/20 03:28:54;;;;;;;;;;;8.20;99.90;;;;;;5027206;28;19974;-94
2022/12/20 03:31:20;;;;;;;;;;;8.10;99.90;;;;;;5041041;28;19937;-93
2022/12/20 03:33:45;;;;;;;;;;;8.10;99.90;;;;;;5013494;28;19973;-93
2022/12/20 03:36:11;;;;;;;;;;;8.10;99.90;;;;;;5012129;28;19927;-92
2022/12/20 03:38:36;;;;;;;;;;;8.10;99.90;;;;;;4946502;28;19981;-93
2022/12/20 03:41:02;;;;;;;;;;;7.70;99.90;;;;;;5013950;28;19926;-95
2022/12/20 03:43:28;;;;;;;;;;;8.10;99.90;;;;;;5014038;28;19955;-94
2022/12/20 03:45:53;;;;;;;;;;;8.10;99.90;;;;;;4946914;28;19933;-93
2022/12/20 03:48:19;;;;;;;;;;;8.10;99.90;;;;;;4946769;28;19926;-94
2022/12/20 03:50:45;;;;;;;;;;;8.10;99.90;;;;;;4945061;28;19958;-94
2022/12/20 03:53:10;;;;;;;;;;;8.10;99.90;;;;;;5011238;28;19953;-94
2022/12/20 03:55:36;;;;;;;;;;;8.20;99.90;;;;;;4945415;28;19934;-92
2022/12/20 03:58:02;;;;;;;;;;;8.20;99.90;;;;;;5013967;28;19926;-94
2022/12/20 04:00:28;;;;;;;;;;;8.10;99.90;;;;;;5032011;28;19937;-93
2022/12/20 04:02:54;;;;;;;;;;;8.10;99.90;;;;;;5031555;28;19933;-94
2022/12/20 04:05:20;;;;;;;;;;;8.10;99.90;;;;;;5005609;28;19969;-93
2022/12/20 04:07:46;;;;;;;;;;;8.20;99.90;;;;;;5048119;28;19941;-93
2022/12/20 04:10:11;;;;;;;;;;;8.20;99.90;;;;;;4948694;28;19926;-92
2022/12/20 04:12:37;;;;;;;;;;;8.20;99.90;;;;;;5022588;28;19930;-94
2022/12/20 04:15:03;;;;;;;;;;;8.20;99.90;;;;;;5010119;28;19926;-93
2022/12/20 04:17:28;;;;;;;;;;;8.20;99.90;;;;;;4952718;28;19929;-93
2022/12/20 04:19:54;;;;;;;;;;;8.20;99.90;;;;;;5035999;28;19934;-92
2022/12/20 04:22:20;;;;;;;;;;;8.20;99.90;;;;;;5036570;28;19926;-95
2022/12/20 04:24:46;;;;;;;;;;;8.20;99.90;;;;;;4993522;28;19934;-94
2022/12/20 04:27:11;;;;;;;;;;;8.20;99.90;;;;;;5035200;28;19981;-93
2022/12/20 04:29:37;;;;;;;;;;;8.20;99.90;;;;;;5036434;28;19976;-93
2022/12/20 04:32:03;;;;;;;;;;;8.20;99.90;;;;;;5034816;28;19933;-95
2022/12/20 04:34:28;;;;;;;;;;;8.30;99.90;;;;;;4961946;28;19933;-94
2022/12/20 04:36:54;;;;;;;;;;;8.30;99.90;;;;;;4960728;28;19926;-94
2022/12/20 04:39:19;;;;;;;;;;;8.30;99.90;;;;;;5008817;28;19926;-94
2022/12/20 04:41:45;;;;;;;;;;;8.30;99.90;;;;;;4943349;28;20394;-92
2022/12/20 04:44:11;;;;;;;;;;;8.30;99.90;;;;;;5046919;28;21144;-95
2022/12/20 04:46:36;;;;;;;;;;;8.30;99.90;;;;;;4984713;28;19938;-92
2022/12/20 04:49:02;;;;;;;;;;;8.30;99.90;;;;;;5025547;28;19966;-92
2022/12/20 04:51:28;;;;;;;;;;;8.40;99.90;;;;;;5027349;28;19977;-93
2022/12/20 04:53:53;;;;;;;;;;;8.40;99.90;;;;;;4960870;28;19926;-92
2022/12/20 04:56:23;;;;;;;;;;;8.40;99.90;;;;;;5031826;28;20023;-94
2022/12/20 04:58:50;;;;;;;;;;;8.40;99.90;;;;;;5032184;28;20394;-91
2022/12/20 05:01:16;;;;;;;;;;;8.50;99.90;;;;;;5024378;28;19963;-94
2022/12/20 05:03:45;;;;;;;;;;;8.50;99.90;;;;;;5031676;28;19933;-94
2022/12/20 05:06:11;;;;;;;;;;;9.20;99.90;;;;;;5030250;28;19926;-91
2022/12/20 05:08:37;;;;;;;;;;;8.60;99.90;;;;;;5008304;28;19930;-92
2022/12/20 05:11:02;;;;;;;;;;;8.60;99.90;;;;;;5049821;28;19937;-92
2022/12/20 05:13:28;;;;;;;;;;;8.60;99.90;;;;;;5014610;28;19926;-93
2022/12/20 05:15:54;;;;;;;;;;;8.60;99.90;;;;;;5017612;28;19991;-94
2022/12/20 05:18:20;;;;;;;;;;;8.60;99.90;;;;;;5016230;28;19932;-94
2022/12/20 05:20:47;;;;;;;;;;;8.70;99.90;;;;;;5048869;28;19930;-93
2022/12/20 05:28:41;;;;;;;;;;;8.60;99.90;;;;;;4964086;28;19926;-93
2022/12/20 05:31:07;;;;;;;;;;;8.70;99.90;;;;;;4950487;28;20023;-93
2022/12/20 05:33:33;;;;;;;;;;;8.70;99.90;;;;;;5027726;28;19941;-93
2022/12/20 05:35:58;;;;;;;;;;;8.70;99.90;;;;;;5031269;28;19926;-91
2022/12/20 05:38:24;;;;;;;;;;;8.70;99.90;;;;;;5016957;28;19926;-92
2022/12/20 05:40:50;;;;;;;;;;;8.70;99.90;;;;;;5014813;28;19926;-93
2022/12/20 05:43:17;;;;;;;;;;;8.70;99.90;;;;;;5015031;28;19926;-94
2022/12/20 05:45:46;;;;;;;;;;;8.80;99.90;;;;;;5029196;28;19940;-93
2022/12/20 05:48:12;;;;;;;;;;;8.80;99.90;;;;;;5030126;28;19937;-91
2022/12/20 05:50:38;;;;;;;;;;;8.80;99.90;;;;;;4947624;28;19926;-94
2022/12/20 05:53:03;;;;;;;;;;;8.80;99.90;;;;;;5014698;28;19961;-93
2022/12/20 05:55:29;;;;;;;;;;;8.80;99.90;;;;;;5048004;28;19927;-94
2022/12/20 05:57:55;;;;;;;;;;;8.80;99.90;;;;;;5036441;28;19930;-92
2022/12/20 06:00:21;;;;;;;;;;;8.80;99.90;;;;;;5030019;28;19926;-93
2022/12/20 06:02:46;;;;;;;;;;;8.80;99.90;;;;;;5029427;28;19976;-94
2022/12/20 06:05:12;;;;;;;;;;;8.80;99.90;;;;;;4947812;28;19926;-93
2022/12/20 06:07:37;;;;;;;;;;;8.80;99.90;;;;;;5010722;28;19930;-92
2022/12/20 06:10:03;;;;;;;;;;;8.80;99.90;;;;;;5048272;28;20294;-92
2022/12/20 06:12:29;;;;;;;;;;;8.80;99.90;;;;;;5011907;28;19934;-96
2022/12/20 06:14:54;;;;;;;;;;;8.80;99.90;;;;;;5015478;28;19926;-93
2022/12/20 06:17:20;;;;;;;;;;;8.90;99.90;;;;;;4941033;28;19926;-92
2022/12/20 06:19:46;;;;;;;;;;;8.80;99.90;;;;;;5049171;28;19926;-93
2022/12/20 06:22:13;;;;;;;;;;;8.90;99.90;;;;;;5027742;28;19934;-96
2022/12/20 06:24:42;;;;;;;;;;;8.90;99.90;;;;;;5031198;28;19942;-94
2022/12/20 06:27:07;;;;;;;;;;;8.80;99.90;;;;;;5027996;28;20013;-93
2022/12/20 06:29:33;;;;;;;;;;;8.90;99.90;;;;;;5024891;28;19926;-92
2022/12/20 06:31:59;;;;;;;;;;;8.90;99.90;;;;;;5057497;28;19926;-94
2022/12/20 06:34:24;;;;;;;;;;;8.90;99.90;;;;;;5052160;28;19957;-93
2022/12/20 06:36:50;;;;;;;;;;;9.00;99.90;;;;;;4955115;28;19956;-95
2022/12/20 06:39:16;;;;;;;;;;;9.00;99.90;;;;;;5029530;28;19926;-91
2022/12/20 06:41:41;;;;;;;;;;;9.00;99.90;;;;;;5018989;28;19937;-93
2022/12/20 06:44:07;;;;;;;;;;;9.00;99.90;;;;;;5027095;28;19926;-95
2022/12/20 06:46:33;;;;;;;;;;;9.10;99.90;;;;;;5055752;28;19981;-94
2022/12/20 06:48:58;;;;;;;;;;;9.10;99.90;;;;;;4947299;28;19926;-94
2022/12/20 06:51:24;;;;;;;;;;;9.10;99.90;;;;;;5013181;28;19957;-94
2022/12/20 06:53:50;;;;;;;;;;;9.10;99.90;;;;;;5027461;28;20330;-92
2022/12/20 06:56:15;;;;;;;;;;;9.20;99.90;;;;;;5011382;28;19990;-91
2022/12/20 06:58:41;;;;;;;;;;;9.20;99.90;;;;;;5045404;28;19930;-94
2022/12/20 07:01:07;;;;;;;;;;;9.20;99.90;;;;;;5037049;28;20299;-91
2022/12/20 07:03:32;;;;;;;;;;;9.40;99.90;;;;;;5017296;28;19937;-93
2022/12/20 07:05:58;;;;;;;;;;;9.20;99.90;;;;;;5035556;28;19926;-93
2022/12/20 07:08:24;;;;;;;;;;;9.10;99.90;;;;;;5034001;28;19989;-95
2022/12/20 07:10:51;;;;;;;;;;;9.10;99.90;;;;;;5027953;28;19927;-93
2022/12/20 07:13:20;;;;;;;;;;;9.10;99.90;;;;;;5026111;28;19930;-95
2022/12/20 07:15:45;;;;;;;;;;;9.10;99.90;;;;;;5015817;28;19926;-94
2022/12/20 07:18:11;;;;;;;;;;;9.10;99.90;;;;;;4962137;28;19937;-92
2022/12/20 07:20:37;;;;;;;;;;;9.10;99.90;;;;;;5035447;28;19930;-92
2022/12/20 07:23:03;;;;;;;;;;;9.10;99.90;;;;;;5023072;28;19949;-94
2022/12/20 07:25:28;;;;;;;;;;;9.10;99.90;;;;;;4961261;28;19990;-92
2022/12/20 07:27:57;;;;;;;;;;;9.00;99.90;;;;;;5006146;28;19937;-93
2022/12/20 07:30:23;;;;;;;;;;;9.10;99.90;;;;;;5013575;28;19941;-95
2022/12/20 07:32:48;;;;;;;;;;;9.10;99.90;;;;;;5025264;28;19927;-92
2022/12/20 07:35:14;;;;;;;;;;;9.10;99.90;;;;;;5030426;28;19933;-93
2022/12/20 07:37:40;;;;;;;;;;;9.10;99.90;;;;;;5029602;28;19926;-92
2022/12/20 07:40:06;;;;;;;;;;;9.10;99.90;;;;;;5028092;28;20002;-92
2022/12/20 07:42:32;;;;;;;;;;;9.10;99.90;;;;;;5022951;28;19926;-93
2022/12/20 07:44:57;;;;;;;;;;;9.10;99.90;;;;;;5005533;28;19941;-93
2022/12/20 07:47:23;;;;;;;;;;;9.10;99.90;;;;;;5058276;28;19925;-94
2022/12/20 07:49:48;;;;;;;;;;;9.10;99.90;;;;;;5023683;28;19927;-93
2022/12/20 07:52:15;;;;;;;;;;;9.10;99.90;;;;;;5033928;28;20397;-93
2022/12/20 07:54:44;;;;;;;;;;;9.10;99.90;;;;;;5027639;28;19965;-92
2022/12/20 07:57:13;;;;;;;;;;;9.20;99.90;;;;;;5028720;28;19926;-93
2022/12/20 07:59:40;;;;;;;;;;;9.20;99.90;;;;;;5027698;28;19966;-93
2022/12/20 08:02:07;;;;;;;;;;;9.20;99.90;;;;;;5039390;28;19927;-92
2022/12/20 08:04:33;;;;;;;;;;;9.20;99.90;;;;;;5027678;28;19930;-92
2022/12/20 08:07:02;;;;;;;;;;;9.20;99.90;;;;;;5027376;28;19927;-95
2022/12/20 08:09:29;;;;;;;;;;;9.20;99.90;;;;;;5011959;28;19938;-92
2022/12/20 08:11:56;;;;;;;;;;;9.20;99.90;;;;;;5017371;28;19934;-92
2022/12/20 08:14:23;;;;;;;;;;;9.20;99.90;;;;;;5014611;28;19934;-94
2022/12/20 08:16:49;;;;;;;;;;;9.30;99.90;;;;;;5027846;28;19940;-93
2022/12/20 08:19:15;;;;;;;;;;;9.20;99.90;;;;;;5016812;28;19933;-94
2022/12/20 08:21:40;;;;;;;;;;;9.30;99.90;;;;;;5031727;28;20408;-94
2022/12/20 08:24:07;;;;;;;;;;;9.30;99.90;;;;;;5036531;28;19932;-93
2022/12/20 08:26:36;;;;;;;;;;;9.30;99.90;;;;;;5034614;28;19926;-94
2022/12/20 08:29:01;;;;;;;;;;;9.30;99.90;;;;;;5054225;28;20328;-93
2022/12/20 08:31:27;;;;;;;;;;;9.30;99.90;;;;;;5037132;28;19986;-94
2022/12/20 08:33:53;;;;;;;;;;;9.30;99.90;;;;;;5014890;28;19977;-92
2022/12/20 08:36:19;;;;;;;;;;;9.30;99.90;;;;;;5040689;28;19981;-91
2022/12/20 08:38:45;;;;;;;;;;;9.30;99.90;;;;;;5014766;28;19926;-93
2022/12/20 08:41:12;;;;;;;;;;;9.40;99.90;;;;;;5012821;28;19988;-92
2022/12/20 08:43:38;;;;;;;;;;;9.40;99.90;;;;;;5031444;28;20009;-94
2022/12/20 08:46:05;;;;;;;;;;;9.40;99.90;;;;;;5032821;28;19937;-93
2022/12/20 08:48:31;;;;;;;;;;;9.40;99.90;;;;;;5033183;28;19934;-94
2022/12/20 08:50:59;;;;;;;;;;;9.40;99.90;;;;;;5012272;28;20033;-95
2022/12/20 08:53:24;;;;;;;;;;;9.40;99.90;;;;;;5038844;28;19932;-92
2022/12/20 08:55:50;;;;;;;;;;;9.50;99.90;;;;;;5048332;28;19942;-94
2022/12/20 08:58:16;;;;;;;;;;;9.50;99.90;;;;;;5046298;28;19939;-93
2022/12/20 09:00:42;;;;;;;;;;;9.50;99.90;;;;;;5032443;28;19924;-94
2022/12/20 09:03:10;;;;;;;;;;;9.70;99.90;;;;;;5048730;28;20010;-96
2022/12/20 09:05:41;;;;;;;;;;;9.50;99.90;;;;;;5043195;28;19929;-94
2022/12/20 09:08:07;;;;;;;;;;;9.50;99.90;;;;;;5055398;28;19925;-95
2022/12/20 09:10:33;;;;;;;;;;;9.20;99.90;;;;;;5048860;28;20011;-93
2022/12/20 09:12:59;;;;;;;;;;;9.60;99.90;;;;;;5050946;28;20015;-93
2022/12/20 09:15:26;;;;;;;;;;;9.60;99.90;;;;;;5030269;28;19971;-93
2022/12/20 09:17:52;;;;;;;;;;;9.60;99.90;;;;;;5052531;28;19924;-92
2022/12/20 09:20:17;;;;;;;;;;;9.60;99.90;;;;;;5047904;28;19974;-94
2022/12/20 09:22:43;;;;;;;;;;;9.70;99.90;;;;;;5031564;28;20007;-92
2022/12/20 09:25:09;;;;;;;;;;;9.70;99.90;;;;;;5048669;28;19935;-94
2022/12/20 09:27:38;;;;;;;;;;;9.70;99.90;;;;;;5030110;28;19935;-94
2022/12/20 09:30:04;;;;;;;;;;;9.90;99.90;;;;;;5036419;28;20465;-93
2022/12/20 09:32:30;;;;;;;;;;;9.70;99.90;;;;;;5031102;28;19928;-95
2022/12/20 09:34:55;;;;;;;;;;;9.70;99.90;;;;;;5044454;28;20004;-94
2022/12/20 09:37:21;;;;;;;;;;;9.80;99.90;;;;;;5036157;28;19939;-93
2022/12/20 09:39:50;;;;;;;;;;;9.80;99.90;;;;;;5053008;28;19953;-94
2022/12/20 09:42:17;;;;;;;;;;;9.80;99.90;;;;;;5064602;28;19980;-92
2022/12/20 09:44:43;;;;;;;;;;;9.90;99.90;;;;;;5065880;28;19928;-93
2022/12/20 09:47:17;;;;;;;;;;;9.90;99.90;;;;;;5046381;28;19974;-93
2022/12/20 09:49:47;;;;;;;;;;;10.00;99.90;;;;;;5063756;28;19925;-94
2022/12/20 09:52:22;;;;;;;;;;;10.00;99.90;;;;;;5049200;28;20604;-91
2022/12/20 09:54:53;;;;;;;;;;;10.00;99.90;;;;;;5045957;28;20003;-93
2022/12/20 09:57:19;;;;;;;;;;;10.10;99.90;;;;;;5068770;28;19925;-94
2022/12/20 09:59:45;;;;;;;;;;;10.10;99.90;;;;;;5045745;28;19947;-93
2022/12/20 10:02:11;;;;;;;;;;;10.10;99.90;;;;;;5024513;28;20333;-91
2022/12/20 10:04:37;;;;;;;;;;;10.10;99.90;;;;;;5034571;28;19933;-94
2022/12/20 10:07:17;;;;;;;;;;;10.20;99.90;;;;;;5039015;28;19977;-91
2022/12/20 10:09:49;;;;;;;;;;;10.20;99.90;;;;;;5044634;28;19926;-92
2022/12/20 10:12:44;;;;;;;;;;;10.20;99.90;;;;;;5043154;28;19932;-93
2022/12/20 10:15:28;;;;;;;;;;;10.20;99.90;;;;;;5023090;28;19925;-95
2022/12/20 10:18:13;;;;;;;;;;;10.20;99.90;;;;;;5044672;28;20007;-93
2022/12/20 10:20:57;;;;;;;;;;;10.20;99.90;;;;;;5034564;28;19989;-94
2022/12/20 10:23:26;;;;;;;;;;;10.20;99.90;;;;;;5054869;28;19980;-93
2022/12/20 10:25:53;;;;;;;;;;;10.20;99.90;;;;;;5055597;28;19928;-93
2022/12/20 10:28:23;;;;;;;;;;;10.20;99.90;;;;;;5038044;28;19932;-94
2022/12/20 10:30:49;;;;;;;;;;;10.20;99.90;;;;;;5047206;28;19964;-93
2022/12/20 10:33:20;;;;;;;;;;;10.20;99.90;;;;;;5050040;28;19925;-92
2022/12/20 10:35:46;;;;;;;;;;;10.20;99.90;;;;;;5048963;28;19925;-92
2022/12/20 10:38:22;;;;;;;;;;;10.20;99.90;;;;;;5024684;28;19932;-96
2022/12/20 10:40:59;;;;;;;;;;;10.20;99.90;;;;;;5030308;28;19924;-94
2022/12/20 10:43:25;;;;;;;;;;;10.20;99.90;;;;;;5046395;28;20340;-95
2022/12/20 10:45:59;;;;;;;;;;;10.30;99.90;;;;;;5045352;28;19928;-94
2022/12/20 10:48:28;;;;;;;;;;;10.30;99.90;;;;;;5046810;28;20011;-93
2022/12/20 10:50:54;;;;;;;;;;;10.30;99.90;;;;;;5043085;28;19937;-93
2022/12/20 10:53:23;;;;;;;;;;;10.30;99.90;;;;;;5032183;28;19924;-92
2022/12/20 10:55:48;;;;;;;;;;;10.30;99.90;;;;;;5049165;28;19928;-91
2022/12/20 10:58:34;;;;;;;;;;;10.40;99.90;;;;;;5047882;28;19932;-94
2022/12/20 11:01:17;;;;;;;;;;;10.40;99.90;;;;;;5050537;28;19929;-94
2022/12/20 11:04:03;;;;;;;;;;;10.40;99.90;;;;;;5058305;28;19932;-93
2022/12/20 11:06:39;;;;;;;;;;;10.50;99.90;;;;;;5032737;28;19925;-93
2022/12/20 11:09:17;;;;;;;;;;;10.40;99.90;;;;;;5042885;28;19926;-95
2022/12/20 11:11:56;;;;;;;;;;;10.20;99.90;;;;;;5035446;28;19925;-94
2022/12/20 11:14:22;;;;;;;;;;;10.40;99.90;;;;;;5069990;28;19933;-91
2022/12/20 11:16:49;;;;;;;;;;;10.40;99.90;;;;;;5033991;28;19928;-93
2022/12/20 11:19:15;;;;;;;;;;;10.40;99.90;;;;;;5039505;28;20013;-94
2022/12/20 11:21:50;;;;;;;;;;;10.40;99.90;;;;;;5051263;28;19931;-92
2022/12/20 11:24:18;;;;;;;;;;;10.30;99.90;;;;;;5050768;28;19924;-91
2022/12/20 11:26:44;;;;;;;;;;;10.30;99.90;;;;;;5054194;28;19947;-94
2022/12/20 11:29:28;;;;;;;;;;;10.30;99.90;;;;;;5060727;28;20423;-96
2022/12/20 11:32:15;;;;;;;;;;;10.30;99.90;;;;;;5062156;28;20366;-95
2022/12/20 11:34:40;;;;;;;;;;;10.20;99.90;;;;;;5047886;28;20392;-92
2022/12/20 11:37:06;;;;;;;;;;;10.20;99.90;;;;;;5047716;28;19932;-92
2022/12/20 11:39:44;;;;;;;;;;;10.20;99.90;;;;;;5047024;28;19926;-94
2022/12/20 11:42:28;;;;;;;;;;;10.20;99.90;;;;;;5044668;28;20035;-93
2022/12/20 11:45:03;;;;;;;;;;;10.10;99.90;;;;;;5061344;28;19946;-94
2022/12/20 11:47:41;;;;;;;;;;;10.10;99.90;;;;;;5045798;28;20298;-93
2022/12/20 11:50:24;;;;;;;;;;;10.10;99.90;;;;;;5052714;28;19924;-94
2022/12/20 11:52:53;;;;;;;;;;;10.10;99.90;;;;;;5049296;28;20197;-93
2022/12/20 11:55:33;;;;;;;;;;;10.10;99.90;;;;;;5052404;28;20288;-93
2022/12/20 11:58:08;;;;;;;;;;;10.10;99.90;;;;;;5042123;28;19931;-93
2022/12/20 12:00:34;;;;;;;;;;;10.10;99.90;;;;;;5046107;28;19929;-93
2022/12/20 12:03:09;;;;;;;;;;;10.10;99.90;;;;;;5007625;28;19924;-95
2022/12/20 12:05:35;;;;;;;;;;;10.10;99.90;;;;;;5025922;28;19929;-93
2022/12/20 12:08:03;;;;;;;;;;;10.00;99.90;;;;;;5024520;28;20710;-92
2022/12/20 12:10:36;;;;;;;;;;;10.00;99.90;;;;;;5025538;28;19928;-92
2022/12/20 12:13:06;;;;;;;;;;;10.00;99.90;;;;;;5025959;28;19929;-94
2022/12/20 12:15:31;;;;;;;;;;;10.00;99.90;;;;;;5021949;28;19936;-93
2022/12/20 12:18:15;;;;;;;;;;;10.00;99.90;;;;;;5020085;28;20354;-95
2022/12/20 12:20:44;;;;;;;;;;;10.00;99.90;;;;;;5026876;28;19925;-94
2022/12/20 12:23:15;;;;;;;;;;;10.00;99.90;;;;;;5041130;28;19989;-92
2022/12/20 12:25:40;;;;;;;;;;;10.00;99.90;;;;;;5040501;28;20011;-94
2022/12/20 12:28:06;;;;;;;;;;;10.00;99.90;;;;;;5002676;28;19982;-92
2022/12/20 12:30:37;;;;;;;;;;;10.00;99.90;;;;;;5049477;28;19925;-91
2022/12/20 12:33:05;;;;;;;;;;;9.90;99.90;;;;;;5017073;28;19992;-93
2022/12/20 12:35:44;;;;;;;;;;;9.90;99.90;;;;;;5030975;28;19958;-93
2022/12/20 12:38:23;;;;;;;;;;;9.90;99.90;;;;;;5025425;28;19944;-95
2022/12/20 12:41:10;;;;;;;;;;;9.90;99.90;;;;;;5024057;28;20549;-91
2022/12/20 12:43:35;;;;;;;;;;;9.90;99.90;;;;;;5022797;28;19929;-91
2022/12/20 12:46:03;;;;;;;;;;;9.90;99.90;;;;;;5024333;28;20018;-94
2022/12/20 12:48:36;;;;;;;;;;;9.90;99.90;;;;;;5045692;28;20438;-93
2022/12/20 12:51:02;;;;;;;;;;;9.90;99.90;;;;;;5024157;28;19925;-92
2022/12/20 12:53:28;;;;;;;;;;;9.90;99.90;;;;;;5023529;28;19951;-94
2022/12/20 12:55:54;;;;;;;;;;;9.80;99.90;;;;;;5025169;28;19980;-94
2022/12/20 12:58:22;;;;;;;;;;;9.80;99.90;;;;;;5031460;28;20019;-94
2022/12/20 13:00:52;;;;;;;;;;;9.80;99.90;;;;;;5030740;28;19926;-93
2022/12/20 13:03:37;;;;;;;;;;;9.80;99.90;;;;;;5038296;28;19926;-93
2022/12/20 13:06:22;;;;;;;;;;;9.90;99.90;;;;;;4965176;28;19975;-92
2022/12/20 13:09:02;;;;;;;;;;;9.90;99.90;;;;;;5020323;28;19933;-92
2022/12/20 13:11:35;;;;;;;;;;;9.90;99.90;;;;;;5047548;28;19924;-91
2022/12/20 13:14:11;;;;;;;;;;;9.90;99.90;;;;;;5047260;28;19925;-93
2022/12/20 13:16:39;;;;;;;;;;;9.90;99.90;;;;;;5014400;28;19934;-92
2022/12/20 13:19:10;;;;;;;;;;;9.90;99.90;;;;;;5017247;28;19926;-92
2022/12/20 13:21:37;;;;;;;;;;;9.90;99.90;;;;;;5029869;28;19934;-92
2022/12/20 13:24:21;;;;;;;;;;;9.90;99.90;;;;;;4981818;28;19925;-91
2022/12/20 13:26:50;;;;;;;;;;;9.90;99.90;;;;;;5027492;28;20042;-91
2022/12/20 13:29:26;;;;;;;;;;;9.90;99.90;;;;;;5047954;28;19933;-92
2022/12/20 13:31:52;;;;;;;;;;;9.90;99.90;;;;;;5038851;28;19926;-92
2022/12/20 13:34:33;;;;;;;;;;;9.90;99.90;;;;;;5032478;28;19949;-92
2022/12/20 13:37:27;;;;;;;;;;;9.90;99.90;;;;;;5018764;28;20040;-92
2022/12/20 13:39:54;;;;;;;;;;;9.90;99.90;;;;;;5011864;28;20388;-93
2022/12/20 13:42:39;;;;;;;;;;;9.90;99.90;;;;;;4956639;28;19937;-92
2022/12/20 13:45:09;;;;;;;;;;;9.90;99.90;;;;;;5040594;28;19926;-93
2022/12/20 13:47:41;;;;;;;;;;;9.90;99.90;;;;;;5026609;28;19930;-94
2022/12/20 13:50:26;;;;;;;;;;;10.00;99.90;;;;;;5031999;28;20029;-93
2022/12/20 13:52:53;;;;;;;;;;;10.00;99.90;;;;;;5035864;28;19926;-91
2022/12/20 13:55:30;;;;;;;;;;;10.00;99.90;;;;;;5011269;28;19927;-93
2022/12/20 13:57:55;;;;;;;;;;;10.00;99.90;;;;;;5029041;28;19965;-93
2022/12/20 14:00:24;;;;;;;;;;;10.00;99.90;;;;;;5022842;28;19937;-91
2022/12/20 14:02:50;;;;;;;;;;;10.00;99.90;;;;;;5038003;28;19926;-94
2022/12/20 14:05:18;;;;;;;;;;;10.00;99.90;;;;;;5047520;28;20017;-92
2022/12/20 14:07:45;;;;;;;;;;;10.00;99.90;;;;;;5030040;28;20333;-92
2022/12/20 14:10:31;;;;;;;;;;;10.00;99.90;;;;;;5031992;28;19930;-93
2022/12/20 14:12:57;;;;;;;;;;;10.00;99.90;;;;;;5037238;28;20255;-94
2022/12/20 14:15:28;;;;;;;;;;;10.00;99.90;;;;;;5031359;28;20037;-93
2022/12/20 14:17:54;;;;;;;;;;;10.00;99.90;;;;;;5014532;28;19935;-93
2022/12/20 14:20:25;;;;;;;;;;;10.00;99.90;;;;;;5031350;28;19926;-91
2022/12/20 14:22:53;;;;;;;;;;;10.00;99.90;;;;;;5033795;28;19926;-93
2022/12/20 14:25:26;;;;;;;;;;;10.00;99.90;;;;;;5030374;28;19992;-93
2022/12/20 14:27:52;;;;;;;;;;;10.00;99.90;;;;;;5040177;28;19930;-92
2022/12/20 14:30:25;;;;;;;;;;;10.00;99.90;;;;;;5022040;28;19927;-92
2022/12/20 14:32:51;;;;;;;;;;;10.00;99.90;;;;;;5036266;28;19933;-92
2022/12/20 14:35:19;;;;;;;;;;;10.00;99.90;;;;;;5046823;28;19930;-91
2022/12/20 14:37:52;;;;;;;;;;;10.00;99.90;;;;;;5026247;28;19927;-92
2022/12/20 14:40:19;;;;;;;;;;;10.00;99.90;;;;;;5033880;28;19929;-93
2022/12/20 14:42:45;;;;;;;;;;;10.00;99.90;;;;;;5032439;28;19933;-92